This is the latest recevied weather packets stored in our database for station/object HA5CD-6. If no packets are shown the sender has not sent any weather packets the latest 10 day(s).
| Time | Temp. | Humidity | Pressure | Rain* | Wind** | Luminosity | Snow |
|---|---|---|---|---|---|---|---|
| 1777972954 | 29.44° C | 24% | 990 hPa | - | - | - | - |
| 1777971753 | 30.56° C | 24% | 990 hPa | - | - | - | - |
| 1777971152 | 30° C | 23% | 990 hPa | - | - | - | - |
| 1777970552 | 30° C | 24% | 991 hPa | - | - | - | - |
| 1777969952 | 29.44° C | 25% | 990 hPa | - | - | - | - |
| 1777968754 | 30° C | 24% | 991 hPa | - | - | - | - |
| 1777968154 | 30° C | 25% | 991 hPa | - | - | - | - |
| 1777966974 | 29.44° C | 26% | 991 hPa | - | - | - | - |
| 1777966365 | 30.56° C | 25% | 991 hPa | - | - | - | - |
| 1777965789 | 30.56° C | 25% | 991 hPa | - | - | - | - |
| 1777964554 | 27.22° C | 28% | 991 hPa | - | - | - | - |
| 1777963954 | 28.89° C | 26% | 991 hPa | - | - | - | - |
| 1777962877 | 27.22° C | 26% | 991 hPa | - | - | - | - |
| 1777962188 | 26.67° C | 27% | 991 hPa | - | - | - | - |
| 1777960951 | 25.56° C | 27% | 991 hPa | - | - | - | - |
| 1777960668 | 25.56° C | 27% | 991 hPa | - | - | - | - |
| 1777959150 | 23.33° C | 29% | 991 hPa | - | - | - | - |
| 1777958595 | 23.89° C | 28% | 991 hPa | - | - | - | - |
| 1777957352 | 21.11° C | 31% | 991 hPa | - | - | - | - |
| 1777956750 | 21.67° C | 30% | 991 hPa | - | - | - | - |
| 1777955550 | 20° C | 33% | 991 hPa | - | - | - | - |
| 1777954950 | 18.89° C | 34% | 991 hPa | - | - | - | - |
| 1777954350 | 18.33° C | 36% | 991 hPa | - | - | - | - |
| 1777953749 | 18.33° C | 36% | 991 hPa | - | - | - | - |
| 1777953152 | 15.56° C | 41% | 991 hPa | - | - | - | - |
* Rain since midnight (hover to see other rain measurements)
** Current wind speed in m/s (hover to see current wind gust speed)